sensor_id;sensor_type;location;lat;lon;timestamp;temperature;humidity
429;DHT22;201;48.758;9.290;2023-05-07T00:00:18;15.00;1.00
429;DHT22;201;48.758;9.290;2023-05-07T00:02:45;15.00;1.00
429;DHT22;201;48.758;9.290;2023-05-07T00:05:11;14.90;1.00
429;DHT22;201;48.758;9.290;2023-05-07T00:07:37;14.70;1.00
429;DHT22;201;48.758;9.290;2023-05-07T00:10:03;14.60;1.00
429;DHT22;201;48.758;9.290;2023-05-07T00:12:29;14.50;1.00
429;DHT22;201;48.758;9.290;2023-05-07T00:14:57;14.50;1.00
429;DHT22;201;48.758;9.290;2023-05-07T00:17:22;14.60;1.00
429;DHT22;201;48.758;9.290;2023-05-07T00:19:48;14.60;1.00
429;DHT22;201;48.758;9.290;2023-05-07T00:22:14;14.60;1.00
429;DHT22;201;48.758;9.290;2023-05-07T00:24:39;14.50;1.00
429;DHT22;201;48.758;9.290;2023-05-07T00:27:05;14.50;1.00
429;DHT22;201;48.758;9.290;2023-05-07T00:29:30;14.40;1.00
429;DHT22;201;48.758;9.290;2023-05-07T00:31:56;14.40;1.00
429;DHT22;201;48.758;9.290;2023-05-07T00:34:21;14.40;1.00
429;DHT22;201;48.758;9.290;2023-05-07T00:36:47;14.40;1.00
429;DHT22;201;48.758;9.290;2023-05-07T00:39:13;14.40;1.00
429;DHT22;201;48.758;9.290;2023-05-07T00:41:39;14.40;1.00
429;DHT22;201;48.758;9.290;2023-05-07T00:44:04;14.40;1.00
429;DHT22;201;48.758;9.290;2023-05-07T00:46:30;14.40;1.00
429;DHT22;201;48.758;9.290;2023-05-07T00:48:57;14.30;1.00
429;DHT22;201;48.758;9.290;2023-05-07T00:51:23;14.20;1.00
429;DHT22;201;48.758;9.290;2023-05-07T00:53:50;14.10;1.00
429;DHT22;201;48.758;9.290;2023-05-07T00:56:16;14.00;1.00
429;DHT22;201;48.758;9.290;2023-05-07T00:58:41;13.90;1.00
429;DHT22;201;48.758;9.290;2023-05-07T01:01:07;13.90;1.00
429;DHT22;201;48.758;9.290;2023-05-07T01:03:33;13.90;1.00
429;DHT22;201;48.758;9.290;2023-05-07T01:05:59;13.80;1.00
429;DHT22;201;48.758;9.290;2023-05-07T01:08:26;13.90;1.00
429;DHT22;201;48.758;9.290;2023-05-07T01:10:55;14.00;1.00
429;DHT22;201;48.758;9.290;2023-05-07T01:13:21;14.00;1.00
429;DHT22;201;48.758;9.290;2023-05-07T01:15:47;14.00;1.00
429;DHT22;201;48.758;9.290;2023-05-07T01:18:14;14.00;1.10
429;DHT22;201;48.758;9.290;2023-05-07T01:20:41;14.10;1.50
429;DHT22;201;48.758;9.290;2023-05-07T01:23:07;14.00;1.00
429;DHT22;201;48.758;9.290;2023-05-07T01:25:32;13.80;1.00
429;DHT22;201;48.758;9.290;2023-05-07T01:27:58;13.90;1.00
429;DHT22;201;48.758;9.290;2023-05-07T01:30:26;14.00;1.00
429;DHT22;201;48.758;9.290;2023-05-07T01:32:58;14.10;1.00
429;DHT22;201;48.758;9.290;2023-05-07T01:35:30;14.00;1.00
429;DHT22;201;48.758;9.290;2023-05-07T01:37:57;14.00;1.00
429;DHT22;201;48.758;9.290;2023-05-07T01:40:24;14.10;1.00
429;DHT22;201;48.758;9.290;2023-05-07T01:42:50;14.20;1.00
429;DHT22;201;48.758;9.290;2023-05-07T01:45:16;14.20;1.00
429;DHT22;201;48.758;9.290;2023-05-07T01:47:42;14.20;1.10
429;DHT22;201;48.758;9.290;2023-05-07T01:50:08;14.20;1.00
429;DHT22;201;48.758;9.290;2023-05-07T01:52:36;14.10;1.00
429;DHT22;201;48.758;9.290;2023-05-07T01:55:01;14.00;1.00
429;DHT22;201;48.758;9.290;2023-05-07T01:57:27;13.80;1.00
429;DHT22;201;48.758;9.290;2023-05-07T01:59:52;13.80;1.00
429;DHT22;201;48.758;9.290;2023-05-07T02:02:18;13.60;1.00
429;DHT22;201;48.758;9.290;2023-05-07T02:04:43;13.60;1.00
429;DHT22;201;48.758;9.290;2023-05-07T02:07:09;13.70;1.00
429;DHT22;201;48.758;9.290;2023-05-07T02:09:35;13.70;1.00
429;DHT22;201;48.758;9.290;2023-05-07T02:12:01;13.70;1.10
429;DHT22;201;48.758;9.290;2023-05-07T02:14:26;13.70;1.60
429;DHT22;201;48.758;9.290;2023-05-07T02:16:52;13.70;1.70
429;DHT22;201;48.758;9.290;2023-05-07T02:19:17;13.60;1.80
429;DHT22;201;48.758;9.290;2023-05-07T02:21:43;13.60;2.10
429;DHT22;201;48.758;9.290;2023-05-07T02:24:09;13.60;2.30
429;DHT22;201;48.758;9.290;2023-05-07T02:26:34;13.60;3.40
429;DHT22;201;48.758;9.290;2023-05-07T02:29:00;13.50;3.30
429;DHT22;201;48.758;9.290;2023-05-07T02:31:25;13.50;3.20
429;DHT22;201;48.758;9.290;2023-05-07T02:33:51;13.40;3.20
429;DHT22;201;48.758;9.290;2023-05-07T02:36:16;13.50;3.30
429;DHT22;201;48.758;9.290;2023-05-07T02:38:42;13.50;3.90
429;DHT22;201;48.758;9.290;2023-05-07T02:41:08;13.50;3.30
429;DHT22;201;48.758;9.290;2023-05-07T02:43:33;13.40;3.20
429;DHT22;201;48.758;9.290;2023-05-07T02:46:02;13.40;3.20
429;DHT22;201;48.758;9.290;2023-05-07T02:48:28;13.40;3.60
429;DHT22;201;48.758;9.290;2023-05-07T02:50:53;13.30;4.40
429;DHT22;201;48.758;9.290;2023-05-07T02:53:19;13.20;3.80
429;DHT22;201;48.758;9.290;2023-05-07T02:55:45;13.00;4.10
429;DHT22;201;48.758;9.290;2023-05-07T02:58:10;12.90;4.70
429;DHT22;201;48.758;9.290;2023-05-07T03:00:36;12.90;5.10
429;DHT22;201;48.758;9.290;2023-05-07T03:03:01;12.80;4.80
429;DHT22;201;48.758;9.290;2023-05-07T03:05:27;12.80;5.20
429;DHT22;201;48.758;9.290;2023-05-07T03:07:52;12.80;5.20
429;DHT22;201;48.758;9.290;2023-05-07T03:10:18;12.80;5.40
429;DHT22;201;48.758;9.290;2023-05-07T03:12:44;12.90;5.40
429;DHT22;201;48.758;9.290;2023-05-07T03:15:09;12.80;5.50
429;DHT22;201;48.758;9.290;2023-05-07T03:17:36;12.80;5.70
429;DHT22;201;48.758;9.290;2023-05-07T03:20:02;12.80;5.90
429;DHT22;201;48.758;9.290;2023-05-07T03:22:28;12.80;6.00
429;DHT22;201;48.758;9.290;2023-05-07T03:24:53;12.80;6.10
429;DHT22;201;48.758;9.290;2023-05-07T03:27:19;12.80;6.10
429;DHT22;201;48.758;9.290;2023-05-07T03:29:44;12.80;6.00
429;DHT22;201;48.758;9.290;2023-05-07T03:32:10;12.80;6.20
429;DHT22;201;48.758;9.290;2023-05-07T03:34:35;12.60;5.50
429;DHT22;201;48.758;9.290;2023-05-07T03:37:01;12.40;5.20
429;DHT22;201;48.758;9.290;2023-05-07T03:39:26;12.40;4.80
429;DHT22;201;48.758;9.290;2023-05-07T03:41:52;12.40;4.40
429;DHT22;201;48.758;9.290;2023-05-07T03:44:18;12.50;4.90
429;DHT22;201;48.758;9.290;2023-05-07T03:46:43;12.50;4.40
429;DHT22;201;48.758;9.290;2023-05-07T03:49:09;12.50;4.10
429;DHT22;201;48.758;9.290;2023-05-07T03:51:35;12.40;3.00
429;DHT22;201;48.758;9.290;2023-05-07T03:54:01;12.30;2.40
429;DHT22;201;48.758;9.290;2023-05-07T03:56:26;12.30;2.40
429;DHT22;201;48.758;9.290;2023-05-07T03:58:53;12.40;2.50
429;DHT22;201;48.758;9.290;2023-05-07T04:01:18;12.50;2.60
429;DHT22;201;48.758;9.290;2023-05-07T04:03:44;12.60;2.60
429;DHT22;201;48.758;9.290;2023-05-07T04:06:10;12.50;2.60
429;DHT22;201;48.758;9.290;2023-05-07T04:08:35;12.50;2.60
429;DHT22;201;48.758;9.290;2023-05-07T04:11:01;12.40;2.50
429;DHT22;201;48.758;9.290;2023-05-07T04:13:27;12.40;3.20
429;DHT22;201;48.758;9.290;2023-05-07T04:15:55;12.50;3.80
429;DHT22;201;48.758;9.290;2023-05-07T04:18:21;12.50;4.20
429;DHT22;201;48.758;9.290;2023-05-07T04:20:49;12.60;4.60
429;DHT22;201;48.758;9.290;2023-05-07T04:23:15;12.60;4.70
429;DHT22;201;48.758;9.290;2023-05-07T04:25:41;12.60;4.80
429;DHT22;201;48.758;9.290;2023-05-07T04:28:06;12.70;5.20
429;DHT22;201;48.758;9.290;2023-05-07T04:30:32;12.70;5.10
429;DHT22;201;48.758;9.290;2023-05-07T04:32:57;12.80;5.40
429;DHT22;201;48.758;9.290;2023-05-07T04:35:23;12.80;3.80
429;DHT22;201;48.758;9.290;2023-05-07T04:37:48;12.80;4.60
429;DHT22;201;48.758;9.290;2023-05-07T04:40:14;12.80;3.90
429;DHT22;201;48.758;9.290;2023-05-07T04:42:40;12.90;3.90
429;DHT22;201;48.758;9.290;2023-05-07T04:45:06;13.00;4.50
429;DHT22;201;48.758;9.290;2023-05-07T04:47:31;13.20;4.00
429;DHT22;201;48.758;9.290;2023-05-07T04:49:58;13.20;3.10
429;DHT22;201;48.758;9.290;2023-05-07T04:52:23;13.30;3.90
429;DHT22;201;48.758;9.290;2023-05-07T04:54:49;13.40;4.20
429;DHT22;201;48.758;9.290;2023-05-07T04:57:14;13.30;3.70
429;DHT22;201;48.758;9.290;2023-05-07T04:59:40;13.10;4.10
429;DHT22;201;48.758;9.290;2023-05-07T05:02:05;12.90;5.20
429;DHT22;201;48.758;9.290;2023-05-07T05:04:31;12.80;5.80
429;DHT22;201;48.758;9.290;2023-05-07T05:06:56;12.80;5.80
429;DHT22;201;48.758;9.290;2023-05-07T05:09:22;13.00;6.40
429;DHT22;201;48.758;9.290;2023-05-07T05:11:47;12.90;5.40
429;DHT22;201;48.758;9.290;2023-05-07T05:14:13;13.10;5.80
429;DHT22;201;48.758;9.290;2023-05-07T05:16:39;13.30;6.60
429;DHT22;201;48.758;9.290;2023-05-07T05:19:04;13.50;6.10
429;DHT22;201;48.758;9.290;2023-05-07T05:21:31;13.60;5.30
429;DHT22;201;48.758;9.290;2023-05-07T05:23:57;13.60;4.50
429;DHT22;201;48.758;9.290;2023-05-07T05:26:23;13.70;4.80
429;DHT22;201;48.758;9.290;2023-05-07T05:28:48;13.90;4.70
429;DHT22;201;48.758;9.290;2023-05-07T05:31:15;13.90;5.40
429;DHT22;201;48.758;9.290;2023-05-07T05:33:40;14.00;5.70
429;DHT22;201;48.758;9.290;2023-05-07T05:36:09;14.50;5.50
429;DHT22;201;48.758;9.290;2023-05-07T05:38:35;15.30;3.60
429;DHT22;201;48.758;9.290;2023-05-07T05:41:00;15.70;1.00
429;DHT22;201;48.758;9.290;2023-05-07T05:43:26;15.90;1.00
429;DHT22;201;48.758;9.290;2023-05-07T05:45:51;16.20;1.00
429;DHT22;201;48.758;9.290;2023-05-07T05:48:17;16.70;1.00
429;DHT22;201;48.758;9.290;2023-05-07T05:50:42;17.40;1.00
429;DHT22;201;48.758;9.290;2023-05-07T05:53:08;18.30;1.00
429;DHT22;201;48.758;9.290;2023-05-07T05:55:34;19.70;1.00
429;DHT22;201;48.758;9.290;2023-05-07T05:58:00;20.00;1.00
429;DHT22;201;48.758;9.290;2023-05-07T06:00:26;20.60;1.00
429;DHT22;201;48.758;9.290;2023-05-07T06:02:52;21.10;1.00
429;DHT22;201;48.758;9.290;2023-05-07T06:05:18;22.10;1.00
429;DHT22;201;48.758;9.290;2023-05-07T06:07:43;23.40;1.00
429;DHT22;201;48.758;9.290;2023-05-07T06:10:09;23.60;1.00
429;DHT22;201;48.758;9.290;2023-05-07T06:12:34;23.80;1.00
429;DHT22;201;48.758;9.290;2023-05-07T06:15:00;22.70;1.00
429;DHT22;201;48.758;9.290;2023-05-07T06:17:26;22.60;1.00
429;DHT22;201;48.758;9.290;2023-05-07T06:19:52;22.60;1.00
429;DHT22;201;48.758;9.290;2023-05-07T06:22:18;23.00;1.00
429;DHT22;201;48.758;9.290;2023-05-07T06:24:43;23.40;1.00
429;DHT22;201;48.758;9.290;2023-05-07T06:27:09;23.60;1.00
429;DHT22;201;48.758;9.290;2023-05-07T06:29:34;24.20;1.00
429;DHT22;201;48.758;9.290;2023-05-07T06:32:07;24.50;1.00
429;DHT22;201;48.758;9.290;2023-05-07T06:34:33;24.90;1.00
429;DHT22;201;48.758;9.290;2023-05-07T06:36:58;25.10;1.00
429;DHT22;201;48.758;9.290;2023-05-07T06:39:24;25.00;1.00
429;DHT22;201;48.758;9.290;2023-05-07T06:41:49;24.40;1.00
429;DHT22;201;48.758;9.290;2023-05-07T06:44:15;24.00;1.00
429;DHT22;201;48.758;9.290;2023-05-07T06:46:41;23.10;1.00
429;DHT22;201;48.758;9.290;2023-05-07T06:49:07;22.50;1.00
429;DHT22;201;48.758;9.290;2023-05-07T06:51:32;22.60;1.00
429;DHT22;201;48.758;9.290;2023-05-07T06:53:58;23.40;1.00
429;DHT22;201;48.758;9.290;2023-05-07T06:56:23;24.40;1.00
429;DHT22;201;48.758;9.290;2023-05-07T06:58:49;24.90;1.00
429;DHT22;201;48.758;9.290;2023-05-07T07:01:15;24.70;1.00
429;DHT22;201;48.758;9.290;2023-05-07T07:03:40;24.30;1.00
429;DHT22;201;48.758;9.290;2023-05-07T07:06:06;25.60;1.00
429;DHT22;201;48.758;9.290;2023-05-07T07:08:31;26.20;1.00
429;DHT22;201;48.758;9.290;2023-05-07T07:10:57;26.50;1.00
429;DHT22;201;48.758;9.290;2023-05-07T07:13:23;27.60;1.00
429;DHT22;201;48.758;9.290;2023-05-07T07:15:48;29.20;1.00
429;DHT22;201;48.758;9.290;2023-05-07T07:18:14;31.10;1.00
429;DHT22;201;48.758;9.290;2023-05-07T07:20:40;32.10;1.00
429;DHT22;201;48.758;9.290;2023-05-07T07:23:06;32.20;1.00
429;DHT22;201;48.758;9.290;2023-05-07T07:25:31;33.00;1.00
429;DHT22;201;48.758;9.290;2023-05-07T07:27:57;33.20;1.00
429;DHT22;201;48.758;9.290;2023-05-07T07:30:23;32.40;1.00
429;DHT22;201;48.758;9.290;2023-05-07T07:32:48;30.70;1.00
429;DHT22;201;48.758;9.290;2023-05-07T07:35:14;31.60;1.00
429;DHT22;201;48.758;9.290;2023-05-07T07:37:39;31.80;1.00
429;DHT22;201;48.758;9.290;2023-05-07T07:40:05;32.60;1.00
429;DHT22;201;48.758;9.290;2023-05-07T07:42:31;33.50;1.00
429;DHT22;201;48.758;9.290;2023-05-07T07:44:57;33.00;1.00
429;DHT22;201;48.758;9.290;2023-05-07T07:47:22;33.80;1.00
429;DHT22;201;48.758;9.290;2023-05-07T07:49:48;33.90;1.00
429;DHT22;201;48.758;9.290;2023-05-07T07:52:13;34.00;1.00
429;DHT22;201;48.758;9.290;2023-05-07T07:54:39;34.50;1.00
429;DHT22;201;48.758;9.290;2023-05-07T07:57:05;35.50;1.00
429;DHT22;201;48.758;9.290;2023-05-07T07:59:30;34.50;1.00
429;DHT22;201;48.758;9.290;2023-05-07T08:01:56;34.10;1.00
429;DHT22;201;48.758;9.290;2023-05-07T08:04:22;34.00;1.00
429;DHT22;201;48.758;9.290;2023-05-07T08:06:48;33.20;1.00
429;DHT22;201;48.758;9.290;2023-05-07T08:09:13;32.30;1.00
429;DHT22;201;48.758;9.290;2023-05-07T08:11:39;32.30;1.00
429;DHT22;201;48.758;9.290;2023-05-07T08:14:05;32.70;1.00
429;DHT22;201;48.758;9.290;2023-05-07T08:16:30;33.80;1.00
429;DHT22;201;48.758;9.290;2023-05-07T08:18:56;34.50;1.00
429;DHT22;201;48.758;9.290;2023-05-07T08:21:22;35.10;1.00
429;DHT22;201;48.758;9.290;2023-05-07T08:23:48;35.70;1.00
429;DHT22;201;48.758;9.290;2023-05-07T08:26:14;35.20;1.00
429;DHT22;201;48.758;9.290;2023-05-07T08:28:39;34.40;1.00
429;DHT22;201;48.758;9.290;2023-05-07T08:31:05;34.50;1.00
429;DHT22;201;48.758;9.290;2023-05-07T08:33:30;35.10;1.00
429;DHT22;201;48.758;9.290;2023-05-07T08:35:56;32.80;1.00
429;DHT22;201;48.758;9.290;2023-05-07T08:38:22;31.60;1.00
429;DHT22;201;48.758;9.290;2023-05-07T08:40:52;31.10;1.00
429;DHT22;201;48.758;9.290;2023-05-07T08:43:19;31.40;1.00
429;DHT22;201;48.758;9.290;2023-05-07T08:45:45;33.70;1.00
429;DHT22;201;48.758;9.290;2023-05-07T08:48:17;35.50;1.00
429;DHT22;201;48.758;9.290;2023-05-07T08:50:43;35.60;1.00
429;DHT22;201;48.758;9.290;2023-05-07T08:53:08;35.90;1.00
429;DHT22;201;48.758;9.290;2023-05-07T08:55:34;35.60;1.00
429;DHT22;201;48.758;9.290;2023-05-07T08:58:00;36.10;1.00
429;DHT22;201;48.758;9.290;2023-05-07T09:00:26;34.40;1.00
429;DHT22;201;48.758;9.290;2023-05-07T09:02:53;35.20;1.00
429;DHT22;201;48.758;9.290;2023-05-07T09:05:19;36.50;1.00
429;DHT22;201;48.758;9.290;2023-05-07T09:07:45;37.60;1.00
429;DHT22;201;48.758;9.290;2023-05-07T09:10:12;38.70;1.00
429;DHT22;201;48.758;9.290;2023-05-07T09:12:40;40.10;1.00
429;DHT22;201;48.758;9.290;2023-05-07T09:15:06;40.80;1.00
429;DHT22;201;48.758;9.290;2023-05-07T09:17:32;39.80;1.00
429;DHT22;201;48.758;9.290;2023-05-07T09:20:05;37.70;1.00
429;DHT22;201;48.758;9.290;2023-05-07T09:22:36;38.80;1.00
429;DHT22;201;48.758;9.290;2023-05-07T09:25:02;39.60;1.00
429;DHT22;201;48.758;9.290;2023-05-07T09:27:27;41.20;1.00
429;DHT22;201;48.758;9.290;2023-05-07T09:29:53;42.30;1.00
429;DHT22;201;48.758;9.290;2023-05-07T09:32:18;43.00;1.00
429;DHT22;201;48.758;9.290;2023-05-07T09:34:44;42.50;1.00
429;DHT22;201;48.758;9.290;2023-05-07T09:37:12;42.80;1.00
429;DHT22;201;48.758;9.290;2023-05-07T09:39:41;42.90;1.00
429;DHT22;201;48.758;9.290;2023-05-07T09:42:07;43.50;1.00
429;DHT22;201;48.758;9.290;2023-05-07T09:44:34;43.80;1.00
429;DHT22;201;48.758;9.290;2023-05-07T09:47:00;43.10;1.00
429;DHT22;201;48.758;9.290;2023-05-07T09:49:29;40.40;1.00
429;DHT22;201;48.758;9.290;2023-05-07T09:51:55;40.10;1.00
429;DHT22;201;48.758;9.290;2023-05-07T09:54:22;40.40;1.00
429;DHT22;201;48.758;9.290;2023-05-07T09:56:52;39.70;1.00
429;DHT22;201;48.758;9.290;2023-05-07T09:59:18;37.20;1.00
429;DHT22;201;48.758;9.290;2023-05-07T10:01:45;35.20;1.00
429;DHT22;201;48.758;9.290;2023-05-07T10:04:11;34.60;1.00
429;DHT22;201;48.758;9.290;2023-05-07T10:06:38;35.20;1.00
429;DHT22;201;48.758;9.290;2023-05-07T10:09:04;37.30;1.00
429;DHT22;201;48.758;9.290;2023-05-07T10:11:36;36.90;1.00
429;DHT22;201;48.758;9.290;2023-05-07T10:14:03;35.40;1.00
429;DHT22;201;48.758;9.290;2023-05-07T10:16:32;34.50;1.00
429;DHT22;201;48.758;9.290;2023-05-07T10:18:58;34.30;1.00
429;DHT22;201;48.758;9.290;2023-05-07T10:21:26;34.70;1.00
429;DHT22;201;48.758;9.290;2023-05-07T10:24:21;34.70;1.00
429;DHT22;201;48.758;9.290;2023-05-07T10:26:50;35.40;1.00
429;DHT22;201;48.758;9.290;2023-05-07T10:29:43;36.80;1.00
429;DHT22;201;48.758;9.290;2023-05-07T10:35:32;36.20;1.00
429;DHT22;201;48.758;9.290;2023-05-07T10:38:01;36.00;1.00
429;DHT22;201;48.758;9.290;2023-05-07T10:40:27;36.30;1.00
429;DHT22;201;48.758;9.290;2023-05-07T10:42:56;36.50;1.00
429;DHT22;201;48.758;9.290;2023-05-07T10:45:24;35.90;1.00
429;DHT22;201;48.758;9.290;2023-05-07T10:48:12;35.80;1.00
429;DHT22;201;48.758;9.290;2023-05-07T10:50:40;34.70;1.00
429;DHT22;201;48.758;9.290;2023-05-07T10:53:20;34.40;1.00
429;DHT22;201;48.758;9.290;2023-05-07T10:58:46;34.70;1.00
429;DHT22;201;48.758;9.290;2023-05-07T11:01:12;33.90;1.00
429;DHT22;201;48.758;9.290;2023-05-07T11:04:14;33.60;1.00
429;DHT22;201;48.758;9.290;2023-05-07T11:06:40;33.00;1.00
429;DHT22;201;48.758;9.290;2023-05-07T11:09:06;32.70;1.00
429;DHT22;201;48.758;9.290;2023-05-07T11:11:47;31.90;1.00
429;DHT22;201;48.758;9.290;2023-05-07T11:14:14;30.00;1.00
429;DHT22;201;48.758;9.290;2023-05-07T11:16:41;29.20;1.00
429;DHT22;201;48.758;9.290;2023-05-07T11:19:08;29.00;1.00
429;DHT22;201;48.758;9.290;2023-05-07T11:21:40;28.50;1.00
429;DHT22;201;48.758;9.290;2023-05-07T11:24:07;28.30;1.00
429;DHT22;201;48.758;9.290;2023-05-07T11:26:44;28.20;1.00
429;DHT22;201;48.758;9.290;2023-05-07T11:29:18;28.30;1.00
429;DHT22;201;48.758;9.290;2023-05-07T11:31:51;28.30;1.00
429;DHT22;201;48.758;9.290;2023-05-07T11:34:25;28.00;1.00
429;DHT22;201;48.758;9.290;2023-05-07T11:36:52;27.80;1.00
429;DHT22;201;48.758;9.290;2023-05-07T11:39:29;27.60;1.00
429;DHT22;201;48.758;9.290;2023-05-07T11:41:55;27.60;1.00
429;DHT22;201;48.758;9.290;2023-05-07T11:44:21;27.20;1.00
429;DHT22;201;48.758;9.290;2023-05-07T11:46:46;26.80;1.00
429;DHT22;201;48.758;9.290;2023-05-07T11:49:12;26.30;1.00
429;DHT22;201;48.758;9.290;2023-05-07T11:51:38;25.80;1.00
429;DHT22;201;48.758;9.290;2023-05-07T11:54:04;25.40;1.00
429;DHT22;201;48.758;9.290;2023-05-07T11:56:34;24.80;1.00
429;DHT22;201;48.758;9.290;2023-05-07T11:59:00;24.50;1.00
429;DHT22;201;48.758;9.290;2023-05-07T12:01:26;24.50;1.00
429;DHT22;201;48.758;9.290;2023-05-07T12:03:52;24.20;1.00
429;DHT22;201;48.758;9.290;2023-05-07T12:06:18;23.90;1.00
429;DHT22;201;48.758;9.290;2023-05-07T12:08:45;23.70;1.00
429;DHT22;201;48.758;9.290;2023-05-07T12:11:14;23.40;1.00
429;DHT22;201;48.758;9.290;2023-05-07T12:13:40;23.20;1.00
429;DHT22;201;48.758;9.290;2023-05-07T12:16:06;23.20;1.00
429;DHT22;201;48.758;9.290;2023-05-07T12:18:33;23.00;1.00
429;DHT22;201;48.758;9.290;2023-05-07T12:20:59;22.90;1.00
429;DHT22;201;48.758;9.290;2023-05-07T12:23:25;22.90;1.00
429;DHT22;201;48.758;9.290;2023-05-07T12:25:51;22.80;1.00
429;DHT22;201;48.758;9.290;2023-05-07T12:28:17;22.60;1.00
429;DHT22;201;48.758;9.290;2023-05-07T12:30:45;22.00;1.00
429;DHT22;201;48.758;9.290;2023-05-07T12:33:11;21.10;1.00
429;DHT22;201;48.758;9.290;2023-05-07T12:35:41;20.20;1.00
429;DHT22;201;48.758;9.290;2023-05-07T12:38:12;19.50;1.00
429;DHT22;201;48.758;9.290;2023-05-07T12:40:39;19.00;1.00
429;DHT22;201;48.758;9.290;2023-05-07T12:43:05;18.70;1.00
429;DHT22;201;48.758;9.290;2023-05-07T12:45:30;18.40;1.00
429;DHT22;201;48.758;9.290;2023-05-07T12:47:57;18.20;1.00
429;DHT22;201;48.758;9.290;2023-05-07T12:50:31;18.10;1.00
429;DHT22;201;48.758;9.290;2023-05-07T12:52:56;17.90;1.00
429;DHT22;201;48.758;9.290;2023-05-07T12:55:22;17.90;1.00
429;DHT22;201;48.758;9.290;2023-05-07T12:57:48;18.00;1.00
429;DHT22;201;48.758;9.290;2023-05-07T13:00:15;18.10;1.00
429;DHT22;201;48.758;9.290;2023-05-07T13:02:42;18.20;1.00
429;DHT22;201;48.758;9.290;2023-05-07T13:05:11;18.20;1.00
429;DHT22;201;48.758;9.290;2023-05-07T13:07:37;18.20;1.00
429;DHT22;201;48.758;9.290;2023-05-07T13:10:03;17.90;1.00
429;DHT22;201;48.758;9.290;2023-05-07T13:12:29;17.40;1.00
429;DHT22;201;48.758;9.290;2023-05-07T13:14:55;17.00;1.00
429;DHT22;201;48.758;9.290;2023-05-07T13:17:20;16.60;2.30
429;DHT22;201;48.758;9.290;2023-05-07T13:19:46;16.20;4.90
429;DHT22;201;48.758;9.290;2023-05-07T13:22:11;15.80;6.00
429;DHT22;201;48.758;9.290;2023-05-07T13:24:37;15.40;1.00
429;DHT22;201;48.758;9.290;2023-05-07T13:27:02;15.00;1.00
429;DHT22;201;48.758;9.290;2023-05-07T13:29:28;14.60;1.00
429;DHT22;201;48.758;9.290;2023-05-07T13:31:56;14.40;1.00
429;DHT22;201;48.758;9.290;2023-05-07T13:34:22;14.30;2.10
429;DHT22;201;48.758;9.290;2023-05-07T13:36:47;14.20;3.80
429;DHT22;201;48.758;9.290;2023-05-07T13:39:13;14.10;3.70
429;DHT22;201;48.758;9.290;2023-05-07T13:41:39;14.00;4.50
429;DHT22;201;48.758;9.290;2023-05-07T13:44:04;13.90;4.30
429;DHT22;201;48.758;9.290;2023-05-07T13:46:30;13.80;5.50
429;DHT22;201;48.758;9.290;2023-05-07T13:48:56;13.80;3.10
429;DHT22;201;48.758;9.290;2023-05-07T13:51:22;13.90;3.60
429;DHT22;201;48.758;9.290;2023-05-07T13:53:47;13.90;6.20
429;DHT22;201;48.758;9.290;2023-05-07T13:56:14;13.90;7.80
429;DHT22;201;48.758;9.290;2023-05-07T13:58:42;13.90;7.10
429;DHT22;201;48.758;9.290;2023-05-07T14:01:08;14.00;6.60
429;DHT22;201;48.758;9.290;2023-05-07T14:03:33;14.00;4.20
429;DHT22;201;48.758;9.290;2023-05-07T14:06:00;14.10;4.20
429;DHT22;201;48.758;9.290;2023-05-07T14:08:27;14.20;3.80
429;DHT22;201;48.758;9.290;2023-05-07T14:10:53;14.20;5.30
429;DHT22;201;48.758;9.290;2023-05-07T14:13:18;14.20;9.20
429;DHT22;201;48.758;9.290;2023-05-07T14:15:44;14.20;8.90
429;DHT22;201;48.758;9.290;2023-05-07T14:18:17;14.30;9.60
429;DHT22;201;48.758;9.290;2023-05-07T14:20:42;14.30;12.10
429;DHT22;201;48.758;9.290;2023-05-07T14:23:12;14.30;11.90
429;DHT22;201;48.758;9.290;2023-05-07T14:25:37;14.30;12.50
429;DHT22;201;48.758;9.290;2023-05-07T14:28:03;14.30;12.70
429;DHT22;201;48.758;9.290;2023-05-07T14:30:28;14.40;12.80
429;DHT22;201;48.758;9.290;2023-05-07T14:32:54;14.40;12.80
429;DHT22;201;48.758;9.290;2023-05-07T14:35:20;14.60;12.40
429;DHT22;201;48.758;9.290;2023-05-07T14:37:45;14.60;11.60
429;DHT22;201;48.758;9.290;2023-05-07T14:40:11;14.70;10.40
429;DHT22;201;48.758;9.290;2023-05-07T14:42:36;14.80;10.40
429;DHT22;201;48.758;9.290;2023-05-07T14:45:02;14.80;11.10
429;DHT22;201;48.758;9.290;2023-05-07T14:47:28;14.80;9.00
429;DHT22;201;48.758;9.290;2023-05-07T14:49:54;14.90;9.60
429;DHT22;201;48.758;9.290;2023-05-07T14:52:19;14.90;10.50
429;DHT22;201;48.758;9.290;2023-05-07T14:54:45;14.90;9.90
429;DHT22;201;48.758;9.290;2023-05-07T14:57:14;14.90;10.90
429;DHT22;201;48.758;9.290;2023-05-07T14:59:42;14.90;10.90
429;DHT22;201;48.758;9.290;2023-05-07T15:02:08;14.90;10.40
429;DHT22;201;48.758;9.290;2023-05-07T15:04:34;14.90;11.90
429;DHT22;201;48.758;9.290;2023-05-07T15:07:00;14.80;11.40
429;DHT22;201;48.758;9.290;2023-05-07T15:09:26;14.70;11.20
429;DHT22;201;48.758;9.290;2023-05-07T15:11:51;14.70;11.50
429;DHT22;201;48.758;9.290;2023-05-07T15:14:17;14.70;11.10
429;DHT22;201;48.758;9.290;2023-05-07T15:16:43;14.70;12.30
429;DHT22;201;48.758;9.290;2023-05-07T15:19:08;14.80;13.10
429;DHT22;201;48.758;9.290;2023-05-07T15:21:34;15.00;13.90
429;DHT22;201;48.758;9.290;2023-05-07T15:24:01;15.10;15.20
429;DHT22;201;48.758;9.290;2023-05-07T15:26:27;15.10;15.60
429;DHT22;201;48.758;9.290;2023-05-07T15:28:52;15.10;15.80
429;DHT22;201;48.758;9.290;2023-05-07T15:31:18;15.10;15.90
429;DHT22;201;48.758;9.290;2023-05-07T15:33:43;15.20;16.50
429;DHT22;201;48.758;9.290;2023-05-07T15:36:10;15.30;17.10
429;DHT22;201;48.758;9.290;2023-05-07T15:38:36;15.50;17.70
429;DHT22;201;48.758;9.290;2023-05-07T15:41:01;15.60;17.40
429;DHT22;201;48.758;9.290;2023-05-07T15:43:27;15.70;17.20
429;DHT22;201;48.758;9.290;2023-05-07T15:45:52;15.80;16.50
429;DHT22;201;48.758;9.290;2023-05-07T15:48:18;15.70;15.80
429;DHT22;201;48.758;9.290;2023-05-07T15:50:44;15.90;16.60
429;DHT22;201;48.758;9.290;2023-05-07T15:53:10;16.00;13.90
429;DHT22;201;48.758;9.290;2023-05-07T15:55:38;16.10;14.00
429;DHT22;201;48.758;9.290;2023-05-07T15:58:03;16.10;13.30
429;DHT22;201;48.758;9.290;2023-05-07T16:00:31;16.00;13.60
429;DHT22;201;48.758;9.290;2023-05-07T16:02:57;15.90;12.90
429;DHT22;201;48.758;9.290;2023-05-07T16:05:22;15.70;12.50
429;DHT22;201;48.758;9.290;2023-05-07T16:07:48;15.60;13.60
429;DHT22;201;48.758;9.290;2023-05-07T16:10:14;15.60;13.60
429;DHT22;201;48.758;9.290;2023-05-07T16:12:40;15.60;15.00
429;DHT22;201;48.758;9.290;2023-05-07T16:15:06;15.50;15.60
429;DHT22;201;48.758;9.290;2023-05-07T16:17:32;15.50;15.90
429;DHT22;201;48.758;9.290;2023-05-07T16:19:58;15.50;15.90
429;DHT22;201;48.758;9.290;2023-05-07T16:22:24;15.50;15.90
429;DHT22;201;48.758;9.290;2023-05-07T16:24:50;15.50;16.70
429;DHT22;201;48.758;9.290;2023-05-07T16:27:16;15.60;16.30
429;DHT22;201;48.758;9.290;2023-05-07T16:29:41;15.60;16.30
429;DHT22;201;48.758;9.290;2023-05-07T16:32:07;15.70;16.00
429;DHT22;201;48.758;9.290;2023-05-07T16:34:32;15.70;15.70
429;DHT22;201;48.758;9.290;2023-05-07T16:36:58;15.70;14.90
429;DHT22;201;48.758;9.290;2023-05-07T16:39:23;15.50;13.90
429;DHT22;201;48.758;9.290;2023-05-07T16:41:49;15.20;13.30
429;DHT22;201;48.758;9.290;2023-05-07T16:44:15;15.10;15.00
429;DHT22;201;48.758;9.290;2023-05-07T16:46:41;15.00;14.90
429;DHT22;201;48.758;9.290;2023-05-07T16:49:07;15.00;15.00